Time;durP1;ratioP1;P1;durP2;ratioP2;P2;SDS_P1;SDS_P2;PMS_P1;PMS_P2;Temp;Humidity;BMP_temperature;BMP_pressure;BME280_temperature;BME280_humidity;BME280_pressure;Samples;Min_cycle;Max_cycle;Signal;HPM_P1;HPM_P2
2021/10/14 00:01:44;;;;;;;;;15.00;14.50;;;;;14.07;52.67;102105.44;5047923;28;45852;-89
2021/10/14 00:04:13;;;;;;;;;17.00;15.75;;;;;14.06;52.74;102104.59;5047725;28;46781;-90
2021/10/14 00:06:38;;;;;;;;;16.75;14.25;;;;;13.85;52.91;102069.03;5047358;28;47362;-90
2021/10/14 00:09:04;;;;;;;;;16.25;15.25;;;;;14.07;52.72;102102.81;5047132;28;45669;-89
2021/10/14 00:11:29;;;;;;;;;14.75;14.00;;;;;14.05;52.51;102102.91;5061214;28;45614;-90
2021/10/14 00:13:55;;;;;;;;;15.00;13.00;;;;;13.77;52.41;102051.06;5042386;28;47095;-88
2021/10/14 00:16:20;;;;;;;;;14.00;13.00;;;;;13.57;52.63;102025.09;5041930;28;48169;-90
2021/10/14 00:18:46;;;;;;;;;15.75;12.50;;;;;13.89;52.94;102070.53;5040028;28;45554;-89
2021/10/14 00:24:33;;;;;;;;;13.00;12.25;;;;;14.03;52.64;102103.97;5062512;28;45641;-88
2021/10/14 00:26:58;;;;;;;;;12.50;11.00;;;;;14.02;52.88;102104.88;5054690;28;47179;-87
2021/10/14 00:29:24;;;;;;;;;15.00;13.00;;;;;13.94;52.71;102091.31;5053287;28;45658;-87
2021/10/14 00:31:50;;;;;;;;;13.50;12.25;;;;;14.01;52.50;102113.72;5052079;28;45569;-87
2021/10/14 00:34:15;;;;;;;;;15.75;13.50;;;;;13.71;52.54;102055.88;5051473;28;47280;-89
2021/10/14 00:40:04;;;;;;;;;13.75;13.50;;;;;13.48;52.75;102027.44;5058103;28;45827;-89
2021/10/14 00:42:29;;;;;;;;;14.00;13.00;;;;;13.97;52.92;102104.31;5041202;28;45459;-89
2021/10/14 00:44:55;;;;;;;;;14.00;12.25;;;;;13.63;52.71;102045.78;5039300;28;47843;-89
2021/10/14 00:47:23;;;;;;;;;19.75;14.50;;;;;13.87;52.78;102085.59;5040386;28;46883;-88
2021/10/14 00:49:49;;;;;;;;;15.50;14.50;;;;;13.95;52.46;102109.69;5040128;28;46131;-89
2021/10/14 00:52:16;;;;;;;;;16.75;12.50;;;;;13.95;52.99;102103.56;5039837;28;45362;-90
2021/10/14 00:54:43;;;;;;;;;14.00;12.00;;;;;13.62;52.99;102049.34;5058482;28;47681;-90
2021/10/14 00:57:11;;;;;;;;;14.50;13.00;;;;;13.81;53.06;102093.88;5041600;28;47255;-89
2021/10/14 00:59:37;;;;;;;;;14.50;13.00;;;;;13.70;53.11;102062.94;5041732;28;45682;-86
2021/10/14 01:02:03;;;;;;;;;15.50;13.50;;;;;13.42;52.79;102010.22;5041168;28;45673;-90
2021/10/14 01:04:28;;;;;;;;;14.75;13.25;;;;;13.42;53.10;102015.50;5039976;28;47542;-88
2021/10/14 01:06:54;;;;;;;;;16.75;14.75;;;;;13.83;53.18;102082.28;5039391;28;47509;-90
2021/10/14 01:09:20;;;;;;;;;16.00;14.00;;;;;13.44;53.16;102027.59;5040136;28;45674;-90
2021/10/14 01:11:45;;;;;;;;;13.00;13.00;;;;;13.63;52.86;102047.56;5040127;28;45815;-89
2021/10/14 01:14:11;;;;;;;;;15.00;14.00;;;;;13.82;53.38;102082.38;5039694;28;47474;-90
2021/10/14 01:16:41;;;;;;;;;17.00;13.75;;;;;13.63;53.43;102053.69;5038357;28;48278;-90
2021/10/14 01:19:08;;;;;;;;;14.50;13.00;;;;;13.42;53.17;102029.50;5038755;28;45730;-90
2021/10/14 01:24:55;;;;;;;;;17.00;16.75;;;;;13.71;53.75;102069.03;5057219;28;45707;-89
2021/10/14 01:27:27;;;;;;;;;13.00;12.25;;;;;13.35;53.34;102022.91;5057400;28;45855;-89
2021/10/14 01:29:53;;;;;;;;;15.00;13.50;;;;;13.50;53.63;102065.88;5039980;28;45878;-89
2021/10/14 01:32:19;;;;;;;;;16.00;13.00;;;;;13.24;53.59;102022.69;5039271;28;45806;-87
2021/10/14 01:34:45;;;;;;;;;18.00;15.50;;;;;13.32;53.79;102046.78;5040648;28;47525;-88
2021/10/14 01:37:11;;;;;;;;;20.25;14.00;;;;;13.16;53.73;102016.22;5042480;28;47236;-89
2021/10/14 01:39:36;;;;;;;;;10.00;10.00;;;;;12.97;53.85;101997.97;5066115;28;45644;-88
2021/10/14 01:42:02;;;;;;;;;13.75;10.25;;;;;13.39;53.87;102081.47;5047059;28;45783;-87
2021/10/14 01:44:27;;;;;;;;;14.00;12.00;;;;;13.16;54.26;102040.75;5050183;28;47217;-87
2021/10/14 01:46:53;;;;;;;;;11.00;11.00;;;;;13.08;54.32;102040.31;5052017;28;46961;-89
2021/10/14 01:49:19;;;;;;;;;10.00;10.00;;;;;12.91;54.61;102022.00;5049796;28;45633;-88
2021/10/14 01:55:10;;;;;;;;;12.50;11.50;;;;;12.96;54.85;102044.50;5063251;28;45651;-89
2021/10/14 01:57:35;;;;;;;;;11.00;10.50;;;;;12.87;54.87;102036.28;5056451;28;46984;-89
2021/10/14 02:00:01;;;;;;;;;12.25;10.25;;;;;12.87;54.70;102046.81;5037833;28;45516;-88
2021/10/14 02:02:26;;;;;;;;;11.00;8.50;;;;;12.63;54.68;102006.16;5037892;28;45912;-88
2021/10/14 02:04:52;;;;;;;;;9.50;9.00;;;;;12.61;54.91;102006.22;5037278;28;47436;-89
2021/10/14 02:07:17;;;;;;;;;10.25;9.50;;;;;12.46;54.58;101976.41;5036658;28;47831;-88
2021/10/14 02:09:43;;;;;;;;;11.50;10.25;;;;;12.63;54.92;102006.16;5037264;28;45749;-90
2021/10/14 02:12:08;;;;;;;;;10.50;10.00;;;;;12.90;55.21;102046.66;5037753;28;45735;-89
2021/10/14 02:14:33;;;;;;;;;11.00;8.50;;;;;12.89;54.82;102050.22;5037209;28;48602;-90
2021/10/14 02:16:59;;;;;;;;;9.50;9.25;;;;;12.73;55.25;102034.47;5037492;28;47006;-88
2021/10/14 02:19:24;;;;;;;;;10.00;9.25;;;;;12.36;55.32;101975.22;5037161;28;45769;-88
2021/10/14 02:25:13;;;;;;;;;11.25;11.00;;;;;12.26;55.46;101968.78;5055501;28;45479;-87
2021/10/14 02:27:39;;;;;;;;;10.00;9.00;;;;;12.35;55.32;101986.69;5037015;28;48002;-90
2021/10/14 02:30:08;;;;;;;;;11.25;9.00;;;;;12.66;55.48;102037.53;5036974;28;45610;-88
2021/10/14 02:32:34;;;;;;;;;11.25;9.00;;;;;12.22;55.52;101976.94;5037505;28;45960;-89
2021/10/14 02:34:59;;;;;;;;;9.00;8.50;;;;;12.35;55.65;102005.09;5037104;28;47229;-89
2021/10/14 02:37:26;;;;;;;;;10.25;9.75;;;;;12.43;55.75;102026.50;5055189;28;45665;-89
2021/10/14 02:39:51;;;;;;;;;9.75;9.00;;;;;12.30;55.63;101995.75;5053617;28;46233;-88
2021/10/14 02:42:17;;;;;;;;;11.75;10.75;;;;;12.10;55.79;101957.44;5054827;28;45502;-87
2021/10/14 02:44:43;;;;;;;;;10.00;8.00;;;;;12.49;55.52;102027.94;5036907;28;47429;-87
2021/10/14 02:47:09;;;;;;;;;10.75;10.00;;;;;12.60;55.66;102042.19;5038734;28;46971;-88
2021/10/14 02:49:34;;;;;;;;;10.50;8.75;;;;;12.35;55.80;102005.09;5041809;28;45883;-89
2021/10/14 02:55:21;;;;;;;;;10.75;10.00;;;;;12.57;56.05;102047.63;5058573;28;45538;-89
2021/10/14 02:57:47;;;;;;;;;10.00;9.50;;;;;12.55;56.08;102033.72;5040274;28;46687;-89
2021/10/14 03:00:13;;;;;;;;;11.50;10.25;;;;;12.29;56.11;101997.53;5040355;28;45536;-88
2021/10/14 03:02:39;;;;;;;;;10.50;9.50;;;;;12.50;56.36;102038.38;5040755;28;45682;-86
2021/10/14 03:05:04;;;;;;;;;10.25;8.25;;;;;12.57;56.20;102038.91;5023842;28;47593;-87
2021/10/14 03:10:51;;;;;;;;;11.00;9.25;;;;;12.55;56.49;102044.22;5059911;28;45844;-86
2021/10/14 03:13:17;;;;;;;;;8.75;8.00;;;;;12.07;56.44;101965.50;5042311;28;45640;-87
2021/10/14 03:15:42;;;;;;;;;10.00;8.00;;;;;12.54;56.41;102041.69;5044600;28;47265;-86
2021/10/14 03:18:09;;;;;;;;;16.75;10.75;;;;;12.19;56.24;101977.97;5040699;28;47387;-87
2021/10/14 03:20:34;;;;;;;;;10.00;9.00;;;;;12.27;56.30;102002.03;5040625;28;45855;-88
2021/10/14 03:23:00;;;;;;;;;11.00;9.75;;;;;12.20;56.50;101995.41;5040878;28;45513;-86
2021/10/14 03:25:25;;;;;;;;;10.25;10.00;;;;;11.93;56.71;101945.25;5040471;28;47573;-87
2021/10/14 03:27:51;;;;;;;;;11.00;9.50;;;;;12.16;56.60;101984.22;5040581;28;48280;-88
2021/10/14 03:30:17;;;;;;;;;10.50;9.50;;;;;12.08;56.63;101973.31;5042135;28;45664;-88
2021/10/14 03:32:42;;;;;;;;;15.50;8.00;;;;;12.46;56.75;102044.75;5060765;28;45577;-89
2021/10/14 03:35:08;;;;;;;;;6.75;6.00;;;;;12.27;56.68;102020.41;5044239;28;48491;-89
2021/10/14 03:40:56;;;;;;;;;10.50;9.00;;;;;12.38;56.81;102057.47;5080407;27;45840;-88
2021/10/14 03:43:21;;;;;;;;;8.00;8.00;;;;;12.19;57.07;102017.38;5060792;28;45664;-88
2021/10/14 03:45:47;;;;;;;;;6.50;6.00;;;;;12.35;56.69;102057.66;5083521;28;47589;-87
2021/10/14 03:48:22;;;;;;;;;9.75;8.75;;;;;12.33;57.01;102051.63;5068071;27;47167;-88
2021/10/14 03:50:50;;;;;;;;;8.25;7.25;;;;;12.33;56.96;102051.63;5062898;28;45078;-87
2021/10/14 03:53:18;;;;;;;;;8.00;6.00;;;;;11.89;57.17;101987.53;5063526;28;45170;-86
2021/10/14 03:55:44;;;;;;;;;9.00;8.00;;;;;12.25;56.86;102035.44;5061925;28;47889;-87
2021/10/14 03:58:09;;;;;;;;;9.25;6.75;;;;;12.05;57.06;102012.03;5057940;28;47260;-88
2021/10/14 04:00:37;;;;;;;;;9.00;8.00;;;;;12.18;57.31;102029.66;5052910;28;45622;-87
2021/10/14 04:03:02;;;;;;;;;9.75;7.00;;;;;12.10;57.24;102028.38;5047691;28;45637;-88
2021/10/14 04:05:28;;;;;;;;;9.50;8.25;;;;;12.04;57.18;102028.69;5055521;28;48354;-88
2021/10/14 04:11:16;;;;;;;;;8.50;7.50;;;;;11.95;57.41;102009.06;5065859;28;45727;-88
2021/10/14 04:13:42;;;;;;;;;8.75;7.00;;;;;12.24;57.00;102059.16;5042463;28;45577;-88
2021/10/14 04:16:08;;;;;;;;;8.50;8.50;;;;;12.23;57.19;102054.84;5058323;28;45581;-88
2021/10/14 04:18:36;;;;;;;;;8.75;8.00;;;;;12.19;57.22;102060.28;5056413;28;47158;-87
2021/10/14 04:21:02;;;;;;;;;9.75;8.00;;;;;11.85;57.34;101999.13;5057406;28;45864;-87
2021/10/14 04:23:27;;;;;;;;;10.00;8.00;;;;;11.94;57.52;102017.00;5058255;28;45522;-87
2021/10/14 04:25:53;;;;;;;;;8.25;8.00;;;;;11.81;57.46;102005.47;5039552;28;47339;-86
2021/10/14 04:28:18;;;;;;;;;12.50;7.75;;;;;11.68;57.83;101989.50;5038610;28;47219;-87
2021/10/14 04:30:45;;;;;;;;;9.25;7.25;;;;;11.95;57.71;102039.72;5038118;28;45563;-85
2021/10/14 04:33:11;;;;;;;;;8.25;8.00;;;;;12.08;57.84;102061.78;5038899;28;45686;-88
2021/10/14 04:35:36;;;;;;;;;26.75;22.00;;;;;11.69;57.62;101999.06;5037907;28;48816;-88
2021/10/14 04:41:24;;;;;;;;;11.25;10.25;;;;;11.95;57.69;102040.56;5055313;28;45880;-88
2021/10/14 04:43:49;;;;;;;;;9.00;8.00;;;;;12.07;57.56;102065.34;5038234;28;45881;-88
2021/10/14 04:46:14;;;;;;;;;11.50;10.00;;;;;11.70;57.66;102004.25;5038162;28;48349;-88
2021/10/14 04:48:40;;;;;;;;;9.75;8.75;;;;;12.05;57.53;102070.66;5038304;28;46959;-88
2021/10/14 04:51:05;;;;;;;;;10.75;7.50;;;;;11.91;57.90;102039.03;5038344;28;45653;-87
2021/10/14 04:53:31;;;;;;;;;9.75;9.25;;;;;12.03;57.77;102064.66;5039988;28;45665;-86
2021/10/14 04:55:56;;;;;;;;;8.25;7.75;;;;;11.56;57.94;101991.00;5039508;28;47759;-86
2021/10/14 04:58:22;;;;;;;;;7.50;7.25;;;;;11.96;57.80;102054.56;5042369;28;47321;-88
2021/10/14 05:00:48;;;;;;;;;9.75;8.25;;;;;11.98;57.86;102056.19;5063091;28;45594;-86
2021/10/14 05:03:13;;;;;;;;;10.00;8.75;;;;;11.97;57.78;102064.13;5046950;28;45899;-85
2021/10/14 05:05:38;;;;;;;;;11.25;9.00;;;;;11.97;58.04;102067.63;5041458;28;47645;-86
2021/10/14 05:11:27;;;;;;;;;10.00;8.50;;;;;11.65;58.13;102015.94;5055857;28;45673;-86
2021/10/14 05:13:53;;;;;;;;;9.75;8.25;;;;;11.28;57.89;101962.72;5038241;28;45634;-86
2021/10/14 05:16:18;;;;;;;;;9.50;9.00;;;;;11.26;58.09;101955.88;5037689;28;47403;-86
2021/10/14 05:18:45;;;;;;;;;10.50;8.25;;;;;11.58;58.46;102022.41;5037538;28;47200;-86
2021/10/14 05:27:16;;;;;;;;;7.00;4.00;;;;;11.72;58.22;102060.13;5056150;28;45704;-87
2021/10/14 05:29:42;;;;;;;;;8.75;7.50;;;;;11.81;58.37;102071.13;5054670;28;45755;-86
2021/10/14 05:32:10;;;;;;;;;7.00;7.00;;;;;11.67;58.39;102064.78;5037577;28;45780;-86
2021/10/14 05:34:37;;;;;;;;;9.75;8.75;;;;;11.33;58.31;101991.38;5037501;28;45973;-87
2021/10/14 05:37:03;;;;;;;;;8.25;8.25;;;;;11.46;58.48;102023.06;5037655;28;48590;-87
2021/10/14 05:39:28;;;;;;;;;10.00;9.75;;;;;11.60;58.52;102044.19;5038637;28;47206;-88
2021/10/14 05:41:54;;;;;;;;;10.75;9.00;;;;;11.48;58.33;102026.47;5040540;28;45619;-88
2021/10/14 05:44:19;;;;;;;;;10.50;9.75;;;;;11.31;58.57;102003.72;5041243;28;45544;-87
2021/10/14 05:46:45;;;;;;;;;9.00;7.75;;;;;11.41;58.55;102006.69;5041286;28;47661;-87
2021/10/14 05:49:10;;;;;;;;;10.50;8.50;;;;;11.47;58.63;102024.75;5058829;28;45722;-88
2021/10/14 05:51:36;;;;;;;;;12.00;10.00;;;;;11.76;58.56;102066.13;5058637;28;45636;-88
2021/10/14 05:54:02;;;;;;;;;10.00;9.00;;;;;11.69;58.65;102049.81;5040510;28;45968;-87
2021/10/14 05:56:28;;;;;;;;;11.25;9.00;;;;;11.29;58.76;101987.19;5060031;28;48806;-86
2021/10/14 05:58:53;;;;;;;;;9.00;9.00;;;;;11.27;58.58;101986.44;5066936;28;45767;-89
2021/10/14 06:01:19;;;;;;;;;12.00;9.00;;;;;11.36;58.82;101997.31;5046871;28;45674;-87
2021/10/14 06:03:45;;;;;;;;;7.00;7.00;;;;;11.54;58.66;102027.00;5065157;28;45638;-86
2021/10/14 06:06:10;;;;;;;;;11.00;9.00;;;;;11.32;58.63;101994.91;5046981;28;47756;-88
2021/10/14 06:11:57;;;;;;;;;7.00;5.75;;;;;11.51;58.96;102036.78;5057042;28;45657;-88
2021/10/14 06:14:23;;;;;;;;;10.00;9.00;;;;;11.68;58.93;102061.22;5037960;28;45697;-88
2021/10/14 06:16:48;;;;;;;;;9.25;7.75;;;;;11.48;59.03;102027.31;5037320;28;46316;-86
2021/10/14 06:19:14;;;;;;;;;11.00;9.25;;;;;11.68;59.06;102061.22;5037932;28;47041;-86
2021/10/14 06:21:39;;;;;;;;;11.75;8.25;;;;;11.46;58.89;102023.91;5039809;28;45638;-85
2021/10/14 06:24:05;;;;;;;;;10.75;9.50;;;;;11.69;59.25;102062.94;5042395;28;45901;-84
2021/10/14 06:26:30;;;;;;;;;9.25;8.00;;;;;11.41;59.14;102017.19;5041218;28;47228;-77
2021/10/14 06:28:56;;;;;;;;;9.00;8.00;;;;;11.67;58.98;102056.06;5057594;28;45560;-77
2021/10/14 06:31:21;;;;;;;;;7.75;6.00;;;;;11.71;59.10;102063.69;5057599;28;45719;-77
2021/10/14 06:33:47;;;;;;;;;9.00;7.25;;;;;11.72;58.91;102059.28;5057386;28;45546;-78
2021/10/14 06:36:12;;;;;;;;;5.00;4.00;;;;;11.68;59.18;102048.09;5057169;28;45646;-80
2021/10/14 06:42:01;;;;;;;;;10.00;9.00;;;;;11.76;58.98;102059.09;5056229;28;45816;-78
2021/10/14 06:44:27;;;;;;;;;8.25;8.25;;;;;11.78;59.14;102059.00;5057437;28;45875;-77
2021/10/14 06:46:52;;;;;;;;;9.50;8.00;;;;;11.76;59.15;102053.84;5056976;28;46478;-78
2021/10/14 06:49:18;;;;;;;;;11.50;9.50;;;;;11.82;59.06;102063.19;5057390;28;46239;-77
2021/10/14 06:51:43;;;;;;;;;9.00;9.00;;;;;11.83;58.98;102064.84;5057157;28;46119;-78
2021/10/14 06:57:30;;;;;;;;;15.00;9.50;;;;;11.83;59.11;102056.13;5056840;28;45583;-80
2021/10/14 06:59:56;;;;;;;;;11.25;9.00;;;;;11.88;59.12;102061.97;5057093;28;46044;-78
2021/10/14 07:02:21;;;;;;;;;10.25;9.25;;;;;11.89;59.27;102056.66;5057320;28;45600;-80
2021/10/14 07:04:46;;;;;;;;;11.25;10.75;;;;;11.93;59.28;102059.97;5057193;28;45601;-78
2021/10/14 07:07:12;;;;;;;;;16.75;12.00;;;;;11.90;59.32;102050.47;5057034;28;46364;-78
2021/10/14 07:09:39;;;;;;;;;10.25;9.75;;;;;11.95;59.26;102056.31;5056842;28;45612;-79
2021/10/14 07:12:10;;;;;;;;;10.00;9.50;;;;;11.97;59.29;102057.09;5057029;28;45788;-79
2021/10/14 07:14:43;;;;;;;;;10.50;8.00;;;;;11.98;59.22;102061.44;5057127;28;45552;-77
2021/10/14 07:17:09;;;;;;;;;14.25;10.50;;;;;11.96;59.34;102052.78;5056859;28;45613;-79
2021/10/14 07:19:35;;;;;;;;;11.50;11.25;;;;;12.01;59.22;102053.38;5056403;28;46802;-79
2021/10/14 07:28:26;;;;;;;;;15.50;10.75;;;;;12.11;59.29;102051.09;5056472;28;46023;-78
2021/10/14 07:30:54;;;;;;;;;16.50;14.75;;;;;12.16;59.37;102060.41;5056218;28;46166;-78
2021/10/14 07:33:19;;;;;;;;;13.75;11.50;;;;;12.19;59.34;102056.78;5055413;28;45648;-77
2021/10/14 07:35:46;;;;;;;;;15.25;12.50;;;;;12.22;59.25;102047.88;5056391;28;45502;-78
2021/10/14 07:38:11;;;;;;;;;12.75;11.50;;;;;12.19;59.51;102041.88;5055783;28;47018;-76
2021/10/14 07:40:41;;;;;;;;;14.00;11.25;;;;;12.27;59.21;102051.94;5056280;28;45960;-77
2021/10/14 07:43:39;;;;;;;;;12.50;11.50;;;;;12.31;59.02;102060.53;5051271;28;46013;-77
2021/10/14 07:46:08;;;;;;;;;15.75;12.75;;;;;12.32;59.13;102052.53;5036282;28;45583;-78
2021/10/14 07:48:34;;;;;;;;;16.00;14.00;;;;;12.36;59.50;102053.25;5036182;28;46670;-78
2021/10/14 07:51:00;;;;;;;;;15.50;13.50;;;;;12.40;58.96;102047.72;5035878;28;46043;-76
2021/10/14 07:53:26;;;;;;;;;11.75;11.25;;;;;12.43;59.38;102049.31;5035997;28;45652;-76
2021/10/14 07:55:51;;;;;;;;;15.00;12.75;;;;;12.45;59.51;102048.31;5036012;28;45757;-77
2021/10/14 07:58:17;;;;;;;;;20.00;18.25;;;;;12.46;59.00;102049.16;5035970;28;46575;-77
2021/10/14 08:00:42;;;;;;;;;16.50;14.00;;;;;12.49;58.98;102047.22;5035749;28;45641;-77
2021/10/14 08:03:08;;;;;;;;;18.00;15.25;;;;;12.54;59.10;102046.94;5035847;28;45697;-77
2021/10/14 08:05:34;;;;;;;;;19.00;13.75;;;;;12.56;59.25;102051.19;5039897;28;45625;-77
2021/10/14 08:08:00;;;;;;;;;13.00;11.25;;;;;12.61;59.31;102057.03;5040660;28;46667;-76
2021/10/14 08:10:26;;;;;;;;;18.25;15.25;;;;;12.63;59.01;102055.16;5037533;28;46228;-78
2021/10/14 08:12:52;;;;;;;;;13.00;12.00;;;;;12.65;59.08;102057.69;5037195;28;45903;-76
2021/10/14 08:15:17;;;;;;;;;12.00;11.00;;;;;12.63;58.85;102044.63;5037709;28;45728;-78
2021/10/14 08:17:43;;;;;;;;;13.25;11.25;;;;;12.72;58.99;102063.47;5036900;28;45508;-78
2021/10/14 08:20:10;;;;;;;;;18.00;13.75;;;;;12.73;58.78;102055.50;5035782;28;46024;-78
2021/10/14 08:22:38;;;;;;;;;19.25;17.25;;;;;12.76;58.68;102046.56;5035409;28;45514;-78
2021/10/14 08:25:04;;;;;;;;;16.00;14.00;;;;;12.83;58.90;102047.94;5035341;28;45768;-78
2021/10/14 08:27:30;;;;;;;;;14.50;14.00;;;;;12.86;58.61;102048.59;5035438;28;46924;-77
2021/10/14 08:29:55;;;;;;;;;12.25;12.00;;;;;12.88;58.92;102049.34;5034951;28;46414;-79
2021/10/14 08:32:20;;;;;;;;;11.25;9.00;;;;;12.93;58.59;102049.94;5035888;28;45556;-77
2021/10/14 08:34:46;;;;;;;;;13.50;11.00;;;;;12.95;58.90;102055.13;5035530;28;45629;-77
2021/10/14 08:37:11;;;;;;;;;12.50;9.00;;;;;12.98;58.90;102047.03;5035315;28;46280;-78
2021/10/14 08:43:05;;;;;;;;;11.50;11.25;;;;;13.06;58.62;102041.34;5035415;28;45526;-79
2021/10/14 08:45:34;;;;;;;;;12.00;10.75;;;;;12.95;58.68;102023.56;5052221;28;45778;-76
2021/10/14 08:48:01;;;;;;;;;16.50;13.50;;;;;12.96;58.76;102017.31;5055601;28;45819;-79
2021/10/14 08:50:27;;;;;;;;;14.75;13.00;;;;;13.16;58.26;102051.28;5055561;28;46066;-75
2021/10/14 08:52:52;;;;;;;;;12.50;10.00;;;;;13.05;58.29;102019.44;5055784;28;45815;-77
2021/10/14 08:55:18;;;;;;;;;10.25;8.25;;;;;13.19;58.57;102043.19;5055663;28;45610;-77
2021/10/14 08:57:43;;;;;;;;;11.00;10.00;;;;;13.26;58.19;102041.88;5055408;28;46374;-78
2021/10/14 09:00:09;;;;;;;;;9.75;8.75;;;;;13.30;58.67;102043.41;5055173;28;45924;-78
2021/10/14 09:02:35;;;;;;;;;11.00;8.50;;;;;13.34;58.54;102046.69;5055527;28;45521;-78
2021/10/14 09:05:06;;;;;;;;;7.00;7.00;;;;;13.38;58.59;102048.22;5055394;28;45478;-77
2021/10/14 09:07:32;;;;;;;;;8.50;7.50;;;;;13.41;58.02;102037.50;5054744;28;47262;-78
2021/10/14 09:13:23;;;;;;;;;8.25;5.00;;;;;13.48;57.85;102025.66;5055161;28;45549;-78
2021/10/14 09:15:48;;;;;;;;;4.00;4.00;;;;;13.55;58.17;102026.13;5055333;28;45832;-75
2021/10/14 09:18:25;;;;;;;;;4.00;4.00;;;;;13.56;58.11;102020.75;5054737;28;45752;-75
2021/10/14 09:20:50;;;;;;;;;5.00;4.50;;;;;13.64;57.79;102030.84;5054783;28;46058;-77
2021/10/14 09:23:21;;;;;;;;;3.00;3.00;;;;;13.64;58.10;102018.53;5055018;28;45756;-77
2021/10/14 09:25:49;;;;;;;;;6.00;5.00;;;;;13.70;57.81;102030.47;5055197;28;45547;-79
2021/10/14 09:28:28;;;;;;;;;6.00;5.00;;;;;13.73;57.72;102025.00;5054858;28;45656;-78
2021/10/14 09:31:05;;;;;;;;;5.75;4.00;;;;;13.78;57.50;102025.56;5054840;28;45965;-78
2021/10/14 09:33:46;;;;;;;;;4.00;4.00;;;;;13.82;57.93;102027.06;5054568;28;45628;-77
2021/10/14 09:36:24;;;;;;;;;6.00;5.00;;;;;13.85;57.30;102022.47;5054868;28;45914;-77
2021/10/14 09:38:52;;;;;;;;;5.50;3.75;;;;;13.89;57.69;102020.47;5054302;28;47245;-78
2021/10/14 09:41:22;;;;;;;;;4.75;4.50;;;;;13.93;57.81;102013.25;5054335;28;46376;-77
2021/10/14 09:43:51;;;;;;;;;8.00;6.00;;;;;13.97;57.06;102015.59;5054294;28;45793;-78
2021/10/14 09:46:41;;;;;;;;;6.00;6.00;;;;;14.01;57.17;102005.69;5055024;28;45564;-78
2021/10/14 09:49:14;;;;;;;;;5.75;4.00;;;;;14.05;57.38;102012.44;5054235;28;46878;-75
2021/10/14 09:51:41;;;;;;;;;4.50;4.00;;;;;14.09;57.02;102009.53;5054431;28;47144;-76
2021/10/14 09:54:08;;;;;;;;;4.25;3.50;;;;;14.12;57.08;102009.34;5036368;28;45717;-77
2021/10/14 09:56:34;;;;;;;;;5.00;5.00;;;;;14.16;57.04;102002.91;5053776;28;45832;-77
2021/10/14 09:59:03;;;;;;;;;4.00;3.25;;;;;14.04;57.20;101979.13;5054391;28;45657;-78
2021/10/14 10:01:34;;;;;;;;;4.50;4.50;;;;;14.23;56.82;102006.03;5054445;28;45549;-78
2021/10/14 10:04:01;;;;;;;;;4.00;4.00;;;;;14.26;56.63;102006.66;5054305;28;45584;-77
2021/10/14 10:06:29;;;;;;;;;4.00;4.00;;;;;14.28;56.93;101999.50;5054455;28;45659;-78
2021/10/14 10:08:58;;;;;;;;;5.50;4.25;;;;;14.34;56.68;102000.91;5054455;28;46904;-75
2021/10/14 10:11:26;;;;;;;;;4.00;2.75;;;;;14.38;56.68;101983.97;5056700;28;45527;-76
2021/10/14 10:14:01;;;;;;;;;4.50;2.50;;;;;14.42;56.58;101993.38;5060967;28;45533;-76
2021/10/14 10:16:27;;;;;;;;;3.00;3.00;;;;;14.46;56.36;101983.47;5059055;28;45476;-77
2021/10/14 10:18:52;;;;;;;;;4.50;4.00;;;;;14.52;56.44;101980.44;5056802;28;46211;-75
2021/10/14 10:21:30;;;;;;;;;4.75;4.00;;;;;14.55;56.51;101980.22;5055208;28;45509;-76
2021/10/14 10:23:56;;;;;;;;;5.25;5.00;;;;;14.55;55.92;101972.31;5055726;28;45715;-76
2021/10/14 10:26:34;;;;;;;;;8.50;7.25;;;;;14.62;55.93;101974.47;5054613;28;45567;-77
2021/10/14 10:29:03;;;;;;;;;6.50;5.25;;;;;14.65;55.95;101976.88;5054152;28;45601;-78
2021/10/14 10:31:56;;;;;;;;;6.75;5.75;;;;;14.68;55.80;101974.03;5054315;28;46190;-77
2021/10/14 10:34:41;;;;;;;;;4.00;3.25;;;;;14.73;55.82;101968.47;5054132;28;45822;-78
2021/10/14 10:37:18;;;;;;;;;4.00;3.25;;;;;14.76;55.49;101960.34;5054297;28;45498;-77
2021/10/14 10:39:57;;;;;;;;;4.00;4.00;;;;;14.81;55.51;101965.31;5053798;28;45613;-78
2021/10/14 10:42:35;;;;;;;;;1.75;1.75;;;;;14.81;55.23;101955.59;5054150;28;45747;-78
2021/10/14 10:45:12;;;;;;;;;2.00;1.25;;;;;14.86;55.10;101963.22;5053383;28;45907;-77
2021/10/14 10:47:40;;;;;;;;;3.00;2.00;;;;;14.86;54.75;101952.66;5054111;28;45528;-78
2021/10/14 10:50:08;;;;;;;;;3.50;3.00;;;;;14.94;54.77;101950.34;5053902;28;45575;-77
2021/10/14 10:52:36;;;;;;;;;3.75;2.00;;;;;14.95;54.71;101950.22;5053904;28;45989;-77
2021/10/14 10:55:12;;;;;;;;;2.25;2.00;;;;;14.97;54.29;101944.84;5053324;28;45757;-78
2021/10/14 10:57:48;;;;;;;;;1.00;0.50;;;;;15.03;54.49;101950.56;5053930;28;45720;-79
2021/10/14 11:00:15;;;;;;;;;3.00;3.00;;;;;15.06;54.29;101950.34;5053155;28;47310;-78
2021/10/14 11:02:40;;;;;;;;;4.00;2.50;;;;;15.07;54.15;101943.28;5053788;28;45939;-78
2021/10/14 11:05:06;;;;;;;;;3.00;3.00;;;;;15.11;54.36;101940.31;5055337;28;45715;-79
2021/10/14 11:07:32;;;;;;;;;4.00;3.75;;;;;15.13;53.92;101941.06;5055240;28;45569;-78
2021/10/14 11:09:57;;;;;;;;;6.00;4.00;;;;;15.14;53.97;101928.72;5056832;28;46457;-78
2021/10/14 11:12:22;;;;;;;;;3.00;2.50;;;;;15.14;53.94;101915.50;5057042;28;45531;-77
2021/10/14 11:14:49;;;;;;;;;7.25;6.25;;;;;15.26;53.68;101941.06;5056972;28;45703;-77
2021/10/14 11:17:15;;;;;;;;;6.00;5.00;;;;;15.30;53.74;101936.41;5057136;28;45503;-79
2021/10/14 11:19:42;;;;;;;;;6.00;6.00;;;;;15.33;53.94;101926.47;5057147;28;45531;-78
2021/10/14 11:22:18;;;;;;;;;5.50;4.50;;;;;15.32;53.57;101919.53;5057356;28;45613;-78
2021/10/14 11:24:45;;;;;;;;;6.00;5.25;;;;;15.37;53.65;101914.75;5056826;28;45483;-77
2021/10/14 11:27:14;;;;;;;;;5.50;5.50;;;;;15.45;53.55;101919.47;5057155;28;45451;-78
2021/10/14 11:29:41;;;;;;;;;17.25;15.00;;;;;15.47;53.53;101910.50;5056473;28;47247;-77
2021/10/14 11:32:09;;;;;;;;;9.00;8.25;;;;;15.37;53.36;101882.22;5056829;28;46133;-77
2021/10/14 11:34:37;;;;;;;;;4.00;4.00;;;;;15.56;53.18;101908.19;5056343;28;45545;-77
2021/10/14 11:37:12;;;;;;;;;4.50;3.75;;;;;15.60;53.19;101907.03;5056445;28;45658;-77
2021/10/14 11:39:43;;;;;;;;;6.00;4.25;;;;;15.62;53.00;101902.47;5056374;28;45660;-78
2021/10/14 11:42:13;;;;;;;;;6.25;6.00;;;;;15.65;52.98;101900.47;5056648;28;46789;-78
2021/10/14 11:44:47;;;;;;;;;8.00;6.00;;;;;15.69;52.82;101895.81;5056203;28;45694;-78
2021/10/14 11:47:15;;;;;;;;;9.75;8.00;;;;;15.72;52.76;101898.22;5056679;28;45885;-78
2021/10/14 11:49:41;;;;;;;;;6.25;6.00;;;;;15.72;52.44;101896.41;5056143;28;47377;-76
2021/10/14 11:52:09;;;;;;;;;7.75;7.00;;;;;15.75;52.56;101898.00;5056541;28;46000;-78
2021/10/14 11:54:35;;;;;;;;;7.00;7.00;;;;;15.75;52.47;101882.16;5056156;28;45522;-77
2021/10/14 11:57:02;;;;;;;;;4.75;4.75;;;;;15.82;52.45;101888.66;5056364;28;45637;-76
2021/10/14 11:59:30;;;;;;;;;7.50;7.50;;;;;15.84;52.45;101882.31;5056108;28;47230;-77
2021/10/14 12:02:13;;;;;;;;;7.00;6.50;;;;;15.86;52.47;101875.13;5055634;28;47038;-77
2021/10/14 12:04:47;;;;;;;;;7.00;6.00;;;;;15.89;52.22;101877.53;5055709;28;45681;-77
2021/10/14 12:07:21;;;;;;;;;7.75;7.25;;;;;15.93;52.48;101876.34;5056002;28;45911;-77
2021/10/14 12:09:50;;;;;;;;;7.75;7.50;;;;;15.94;52.05;101867.47;5055769;28;47824;-78
2021/10/14 12:12:20;;;;;;;;;6.50;6.25;;;;;15.99;51.99;101872.44;5056005;28;45942;-77
2021/10/14 12:14:46;;;;;;;;;8.00;8.00;;;;;15.85;51.97;101844.38;5056138;28;45603;-76
2021/10/14 12:17:18;;;;;;;;;6.00;5.25;;;;;15.97;51.52;101852.38;5056507;28;45616;-77
2021/10/14 12:19:43;;;;;;;;;8.00;5.00;;;;;16.07;51.56;101856.84;5056139;28;45918;-76
2021/10/14 12:22:10;;;;;;;;;7.50;6.75;;;;;16.08;51.40;101855.06;5056769;28;45555;-77
2021/10/14 12:25:01;;;;;;;;;9.75;8.00;;;;;16.13;51.44;101847.63;5056801;28;45634;-77
2021/10/14 12:27:55;;;;;;;;;8.50;7.25;;;;;16.16;51.46;101837.66;5056260;28;45501;-77